sensor_id;sensor_type;location;lat;lon;timestamp;P1;durP1;ratioP1;P2;durP2;ratioP2
9422;SDS011;65863;49.506;10.400;2023-11-22T00:00:59;2.30;;;2.03;;
9422;SDS011;65863;49.506;10.400;2023-11-22T00:04:02;2.33;;;2.07;;
9422;SDS011;65863;49.506;10.400;2023-11-22T00:07:05;4.30;;;2.27;;
9422;SDS011;65863;49.506;10.400;2023-11-22T00:09:48;2.30;;;2.10;;
9422;SDS011;65863;49.506;10.400;2023-11-22T00:12:33;2.40;;;2.20;;
9422;SDS011;65863;49.506;10.400;2023-11-22T00:15:20;2.47;;;2.27;;
9422;SDS011;65863;49.506;10.400;2023-11-22T00:18:23;3.03;;;2.50;;
9422;SDS011;65863;49.506;10.400;2023-11-22T00:21:09;2.60;;;2.40;;
9422;SDS011;65863;49.506;10.400;2023-11-22T00:24:12;2.33;;;2.13;;
9422;SDS011;65863;49.506;10.400;2023-11-22T00:26:56;2.60;;;2.40;;
9422;SDS011;65863;49.506;10.400;2023-11-22T00:29:59;2.50;;;2.30;;
9422;SDS011;65863;49.506;10.400;2023-11-22T00:32:43;3.00;;;2.40;;
9422;SDS011;65863;49.506;10.400;2023-11-22T00:35:27;2.43;;;2.23;;
9422;SDS011;65863;49.506;10.400;2023-11-22T00:38:30;4.43;;;2.77;;
9422;SDS011;65863;49.506;10.400;2023-11-22T00:41:14;3.00;;;2.70;;
9422;SDS011;65863;49.506;10.400;2023-11-22T00:44:18;5.30;;;2.87;;
9422;SDS011;65863;49.506;10.400;2023-11-22T00:47:02;2.63;;;2.37;;
9422;SDS011;65863;49.506;10.400;2023-11-22T00:50:05;2.97;;;2.77;;
9422;SDS011;65863;49.506;10.400;2023-11-22T00:52:50;14.30;;;3.30;;
9422;SDS011;65863;49.506;10.400;2023-11-22T00:55:34;3.27;;;2.67;;
9422;SDS011;65863;49.506;10.400;2023-11-22T00:58:18;3.30;;;3.00;;
9422;SDS011;65863;49.506;10.400;2023-11-22T01:01:05;3.20;;;2.90;;
9422;SDS011;65863;49.506;10.400;2023-11-22T01:03:49;3.17;;;2.83;;
9422;SDS011;65863;49.506;10.400;2023-11-22T01:06:34;3.83;;;3.43;;
9422;SDS011;65863;49.506;10.400;2023-11-22T01:09:37;6.73;;;3.57;;
9422;SDS011;65863;49.506;10.400;2023-11-22T01:12:21;3.83;;;3.43;;
9422;SDS011;65863;49.506;10.400;2023-11-22T01:15:24;3.47;;;3.17;;
9422;SDS011;65863;49.506;10.400;2023-11-22T01:18:08;4.33;;;3.83;;
9422;SDS011;65863;49.506;10.400;2023-11-22T01:21:12;3.63;;;3.33;;
9422;SDS011;65863;49.506;10.400;2023-11-22T01:23:56;3.70;;;3.40;;
9422;SDS011;65863;49.506;10.400;2023-11-22T01:26:59;6.57;;;3.90;;
9422;SDS011;65863;49.506;10.400;2023-11-22T01:29:44;4.37;;;3.83;;
9422;SDS011;65863;49.506;10.400;2023-11-22T01:32:28;6.53;;;3.40;;
9422;SDS011;65863;49.506;10.400;2023-11-22T01:35:31;4.40;;;3.27;;
9422;SDS011;65863;49.506;10.400;2023-11-22T01:38:15;4.57;;;4.17;;
9422;SDS011;65863;49.506;10.400;2023-11-22T01:41:18;4.60;;;4.10;;
9422;SDS011;65863;49.506;10.400;2023-11-22T01:44:03;3.97;;;3.57;;
9422;SDS011;65863;49.506;10.400;2023-11-22T01:47:06;4.10;;;3.70;;
9422;SDS011;65863;49.506;10.400;2023-11-22T01:49:50;3.90;;;3.50;;
9422;SDS011;65863;49.506;10.400;2023-11-22T01:52:34;4.27;;;3.87;;
9422;SDS011;65863;49.506;10.400;2023-11-22T01:55:18;6.30;;;3.60;;
9422;SDS011;65863;49.506;10.400;2023-11-22T01:58:03;4.30;;;3.90;;
9422;SDS011;65863;49.506;10.400;2023-11-22T02:01:06;4.37;;;3.97;;
9422;SDS011;65863;49.506;10.400;2023-11-22T02:03:50;5.53;;;4.17;;
9422;SDS011;65863;49.506;10.400;2023-11-22T02:06:54;4.97;;;3.50;;
9422;SDS011;65863;49.506;10.400;2023-11-22T02:09:38;4.10;;;3.67;;
9422;SDS011;65863;49.506;10.400;2023-11-22T02:12:41;4.70;;;3.40;;
9422;SDS011;65863;49.506;10.400;2023-11-22T02:15:26;4.83;;;3.60;;
9422;SDS011;65863;49.506;10.400;2023-11-22T02:18:11;3.50;;;3.20;;
9422;SDS011;65863;49.506;10.400;2023-11-22T02:21:16;4.30;;;3.63;;
9422;SDS011;65863;49.506;10.400;2023-11-22T02:24:01;6.80;;;4.07;;
9422;SDS011;65863;49.506;10.400;2023-11-22T02:27:04;6.13;;;4.23;;
9422;SDS011;65863;49.506;10.400;2023-11-22T02:29:48;4.10;;;3.70;;
9422;SDS011;65863;49.506;10.400;2023-11-22T02:32:51;4.70;;;4.07;;
9422;SDS011;65863;49.506;10.400;2023-11-22T02:35:35;4.60;;;3.93;;
9422;SDS011;65863;49.506;10.400;2023-11-22T02:38:35;3.90;;;3.53;;
9422;SDS011;65863;49.506;10.400;2023-11-22T02:41:19;6.33;;;4.00;;
9422;SDS011;65863;49.506;10.400;2023-11-22T02:44:02;6.00;;;4.17;;
9422;SDS011;65863;49.506;10.400;2023-11-22T02:47:05;4.43;;;3.73;;
9422;SDS011;65863;49.506;10.400;2023-11-22T02:49:49;5.53;;;3.93;;
9422;SDS011;65863;49.506;10.400;2023-11-22T02:52:52;4.63;;;4.00;;
9422;SDS011;65863;49.506;10.400;2023-11-22T02:55:36;4.50;;;3.80;;
9422;SDS011;65863;49.506;10.400;2023-11-22T02:58:39;5.23;;;4.00;;
9422;SDS011;65863;49.506;10.400;2023-11-22T03:01:24;5.17;;;4.50;;
9422;SDS011;65863;49.506;10.400;2023-11-22T03:04:10;5.03;;;4.17;;
9422;SDS011;65863;49.506;10.400;2023-11-22T03:07:12;5.53;;;4.13;;
9422;SDS011;65863;49.506;10.400;2023-11-22T03:09:56;4.93;;;3.77;;
9422;SDS011;65863;49.506;10.400;2023-11-22T03:13:02;4.17;;;3.77;;
9422;SDS011;65863;49.506;10.400;2023-11-22T03:15:47;4.13;;;3.73;;
9422;SDS011;65863;49.506;10.400;2023-11-22T03:18:31;4.37;;;3.87;;
9422;SDS011;65863;49.506;10.400;2023-11-22T03:21:15;5.10;;;4.03;;
9422;SDS011;65863;49.506;10.400;2023-11-22T03:24:01;4.23;;;3.57;;
9422;SDS011;65863;49.506;10.400;2023-11-22T03:26:47;5.20;;;4.07;;
9422;SDS011;65863;49.506;10.400;2023-11-22T03:29:37;3.57;;;3.27;;
9422;SDS011;65863;49.506;10.400;2023-11-22T03:32:21;4.10;;;3.30;;
9422;SDS011;65863;49.506;10.400;2023-11-22T03:35:06;4.40;;;3.43;;
9422;SDS011;65863;49.506;10.400;2023-11-22T03:37:51;4.03;;;3.30;;
9422;SDS011;65863;49.506;10.400;2023-11-22T03:40:35;3.53;;;3.23;;
9422;SDS011;65863;49.506;10.400;2023-11-22T03:43:21;3.60;;;3.30;;
9422;SDS011;65863;49.506;10.400;2023-11-22T03:46:05;3.70;;;3.40;;
9422;SDS011;65863;49.506;10.400;2023-11-22T03:48:49;3.87;;;3.40;;
9422;SDS011;65863;49.506;10.400;2023-11-22T03:51:34;3.77;;;3.37;;
9422;SDS011;65863;49.506;10.400;2023-11-22T03:54:19;3.77;;;3.40;;
9422;SDS011;65863;49.506;10.400;2023-11-22T03:57:03;3.50;;;3.20;;
9422;SDS011;65863;49.506;10.400;2023-11-22T03:59:48;4.03;;;3.50;;
9422;SDS011;65863;49.506;10.400;2023-11-22T04:02:32;3.37;;;3.07;;
9422;SDS011;65863;49.506;10.400;2023-11-22T04:05:16;4.37;;;3.47;;
9422;SDS011;65863;49.506;10.400;2023-11-22T04:08:00;3.97;;;3.53;;
9422;SDS011;65863;49.506;10.400;2023-11-22T04:10:44;3.90;;;3.40;;
9422;SDS011;65863;49.506;10.400;2023-11-22T04:13:29;4.70;;;3.93;;
9422;SDS011;65863;49.506;10.400;2023-11-22T04:16:14;4.43;;;4.03;;
9422;SDS011;65863;49.506;10.400;2023-11-22T04:19:17;5.83;;;4.10;;
9422;SDS011;65863;49.506;10.400;2023-11-22T04:22:02;6.73;;;4.10;;
9422;SDS011;65863;49.506;10.400;2023-11-22T04:25:15;5.07;;;3.90;;
9422;SDS011;65863;49.506;10.400;2023-11-22T04:27:59;4.70;;;4.10;;
9422;SDS011;65863;49.506;10.400;2023-11-22T04:30:43;5.20;;;4.00;;
9422;SDS011;65863;49.506;10.400;2023-11-22T04:33:27;4.20;;;3.70;;
9422;SDS011;65863;49.506;10.400;2023-11-22T04:36:12;3.90;;;3.60;;
9422;SDS011;65863;49.506;10.400;2023-11-22T04:38:56;4.27;;;3.60;;
9422;SDS011;65863;49.506;10.400;2023-11-22T04:41:40;4.37;;;3.50;;
9422;SDS011;65863;49.506;10.400;2023-11-22T04:44:24;3.73;;;3.23;;
9422;SDS011;65863;49.506;10.400;2023-11-22T04:47:08;4.17;;;3.67;;
9422;SDS011;65863;49.506;10.400;2023-11-22T04:49:52;5.00;;;4.17;;
9422;SDS011;65863;49.506;10.400;2023-11-22T04:52:36;4.87;;;4.00;;
9422;SDS011;65863;49.506;10.400;2023-11-22T04:55:20;4.37;;;3.43;;
9422;SDS011;65863;49.506;10.400;2023-11-22T04:58:04;3.57;;;3.27;;
9422;SDS011;65863;49.506;10.400;2023-11-22T05:00:47;3.80;;;3.40;;
9422;SDS011;65863;49.506;10.400;2023-11-22T05:03:31;4.53;;;3.47;;
9422;SDS011;65863;49.506;10.400;2023-11-22T05:06:15;4.20;;;3.50;;
9422;SDS011;65863;49.506;10.400;2023-11-22T05:09:00;4.00;;;3.60;;
9422;SDS011;65863;49.506;10.400;2023-11-22T05:11:44;4.23;;;3.27;;
9422;SDS011;65863;49.506;10.400;2023-11-22T05:14:31;4.13;;;3.57;;
9422;SDS011;65863;49.506;10.400;2023-11-22T05:17:15;4.73;;;3.97;;
9422;SDS011;65863;49.506;10.400;2023-11-22T05:19:59;4.10;;;3.70;;
9422;SDS011;65863;49.506;10.400;2023-11-22T05:22:43;4.23;;;3.77;;
9422;SDS011;65863;49.506;10.400;2023-11-22T05:25:27;3.87;;;3.47;;
9422;SDS011;65863;49.506;10.400;2023-11-22T05:28:11;4.50;;;4.07;;
9422;SDS011;65863;49.506;10.400;2023-11-22T05:30:55;4.27;;;3.87;;
9422;SDS011;65863;49.506;10.400;2023-11-22T05:33:39;4.40;;;3.70;;
9422;SDS011;65863;49.506;10.400;2023-11-22T05:36:24;4.00;;;3.60;;
9422;SDS011;65863;49.506;10.400;2023-11-22T05:39:08;5.60;;;4.27;;
9422;SDS011;65863;49.506;10.400;2023-11-22T05:41:52;4.27;;;3.87;;
9422;SDS011;65863;49.506;10.400;2023-11-22T05:44:37;4.13;;;3.50;;
9422;SDS011;65863;49.506;10.400;2023-11-22T05:47:21;4.30;;;3.90;;
9422;SDS011;65863;49.506;10.400;2023-11-22T05:50:05;3.57;;;3.27;;
9422;SDS011;65863;49.506;10.400;2023-11-22T05:52:51;4.30;;;3.70;;
9422;SDS011;65863;49.506;10.400;2023-11-22T05:55:35;5.60;;;3.97;;
9422;SDS011;65863;49.506;10.400;2023-11-22T05:58:21;4.83;;;3.70;;
9422;SDS011;65863;49.506;10.400;2023-11-22T06:01:05;4.17;;;3.77;;
9422;SDS011;65863;49.506;10.400;2023-11-22T06:03:50;4.80;;;3.93;;
9422;SDS011;65863;49.506;10.400;2023-11-22T06:06:34;5.30;;;4.27;;
9422;SDS011;65863;49.506;10.400;2023-11-22T06:09:18;4.37;;;3.30;;
9422;SDS011;65863;49.506;10.400;2023-11-22T06:12:02;4.07;;;3.60;;
9422;SDS011;65863;49.506;10.400;2023-11-22T06:14:47;4.33;;;3.93;;
9422;SDS011;65863;49.506;10.400;2023-11-22T06:17:31;4.60;;;4.20;;
9422;SDS011;65863;49.506;10.400;2023-11-22T06:20:15;5.03;;;4.23;;
9422;SDS011;65863;49.506;10.400;2023-11-22T06:22:59;6.73;;;4.97;;
9422;SDS011;65863;49.506;10.400;2023-11-22T06:25:43;5.77;;;4.37;;
9422;SDS011;65863;49.506;10.400;2023-11-22T06:28:27;7.17;;;4.50;;
9422;SDS011;65863;49.506;10.400;2023-11-22T06:31:12;4.90;;;4.40;;
9422;SDS011;65863;49.506;10.400;2023-11-22T06:33:56;5.60;;;4.30;;
9422;SDS011;65863;49.506;10.400;2023-11-22T06:36:40;4.00;;;3.23;;
9422;SDS011;65863;49.506;10.400;2023-11-22T06:39:24;4.20;;;3.43;;
9422;SDS011;65863;49.506;10.400;2023-11-22T06:42:09;5.00;;;3.63;;
9422;SDS011;65863;49.506;10.400;2023-11-22T06:44:53;4.00;;;3.60;;
9422;SDS011;65863;49.506;10.400;2023-11-22T06:47:37;5.23;;;3.60;;
9422;SDS011;65863;49.506;10.400;2023-11-22T06:50:25;5.00;;;4.00;;
9422;SDS011;65863;49.506;10.400;2023-11-22T06:53:10;5.63;;;4.17;;
9422;SDS011;65863;49.506;10.400;2023-11-22T06:55:55;8.97;;;4.60;;
9422;SDS011;65863;49.506;10.400;2023-11-22T06:58:40;4.30;;;3.90;;
9422;SDS011;65863;49.506;10.400;2023-11-22T07:01:24;4.13;;;3.73;;
9422;SDS011;65863;49.506;10.400;2023-11-22T07:04:11;4.67;;;4.20;;
9422;SDS011;65863;49.506;10.400;2023-11-22T07:06:55;4.60;;;4.17;;
9422;SDS011;65863;49.506;10.400;2023-11-22T07:09:43;4.83;;;4.13;;
9422;SDS011;65863;49.506;10.400;2023-11-22T07:12:28;6.73;;;4.83;;
9422;SDS011;65863;49.506;10.400;2023-11-22T07:15:12;5.63;;;4.70;;
9422;SDS011;65863;49.506;10.400;2023-11-22T07:17:57;5.03;;;4.47;;
9422;SDS011;65863;49.506;10.400;2023-11-22T07:20:42;5.30;;;4.57;;
9422;SDS011;65863;49.506;10.400;2023-11-22T07:23:26;4.87;;;4.37;;
9422;SDS011;65863;49.506;10.400;2023-11-22T07:26:12;5.70;;;4.80;;
9422;SDS011;65863;49.506;10.400;2023-11-22T07:29:00;4.90;;;4.40;;
9422;SDS011;65863;49.506;10.400;2023-11-22T07:31:44;5.07;;;4.57;;
9422;SDS011;65863;49.506;10.400;2023-11-22T07:34:28;5.57;;;4.87;;
9422;SDS011;65863;49.506;10.400;2023-11-22T07:37:12;6.27;;;5.17;;
9422;SDS011;65863;49.506;10.400;2023-11-22T07:40:00;5.23;;;4.73;;
9422;SDS011;65863;49.506;10.400;2023-11-22T07:42:44;10.37;;;4.70;;
9422;SDS011;65863;49.506;10.400;2023-11-22T07:45:28;6.43;;;4.67;;
9422;SDS011;65863;49.506;10.400;2023-11-22T07:48:12;6.77;;;5.30;;
9422;SDS011;65863;49.506;10.400;2023-11-22T07:50:57;6.33;;;5.70;;
9422;SDS011;65863;49.506;10.400;2023-11-22T07:53:42;6.90;;;5.50;;
9422;SDS011;65863;49.506;10.400;2023-11-22T07:56:27;6.77;;;5.07;;
9422;SDS011;65863;49.506;10.400;2023-11-22T07:59:11;7.27;;;5.50;;
9422;SDS011;65863;49.506;10.400;2023-11-22T08:01:56;6.70;;;5.80;;
9422;SDS011;65863;49.506;10.400;2023-11-22T08:04:41;5.57;;;4.60;;
9422;SDS011;65863;49.506;10.400;2023-11-22T08:07:25;5.23;;;4.67;;
9422;SDS011;65863;49.506;10.400;2023-11-22T08:10:10;5.87;;;5.27;;
9422;SDS011;65863;49.506;10.400;2023-11-22T08:13:13;5.40;;;4.90;;
9422;SDS011;65863;49.506;10.400;2023-11-22T08:15:57;6.93;;;6.03;;
9422;SDS011;65863;49.506;10.400;2023-11-22T08:18:44;7.17;;;5.77;;
9422;SDS011;65863;49.506;10.400;2023-11-22T08:21:28;6.77;;;5.60;;
9422;SDS011;65863;49.506;10.400;2023-11-22T08:24:12;6.77;;;5.27;;
9422;SDS011;65863;49.506;10.400;2023-11-22T08:27:15;6.10;;;5.23;;
9422;SDS011;65863;49.506;10.400;2023-11-22T08:29:59;6.10;;;5.47;;
9422;SDS011;65863;49.506;10.400;2023-11-22T08:33:07;6.60;;;5.50;;
9422;SDS011;65863;49.506;10.400;2023-11-22T08:35:51;7.00;;;5.73;;
9422;SDS011;65863;49.506;10.400;2023-11-22T08:38:57;8.97;;;6.53;;
9422;SDS011;65863;49.506;10.400;2023-11-22T08:41:43;8.13;;;6.20;;
9422;SDS011;65863;49.506;10.400;2023-11-22T08:44:27;7.30;;;5.90;;
9422;SDS011;65863;49.506;10.400;2023-11-22T08:47:11;7.67;;;6.00;;
9422;SDS011;65863;49.506;10.400;2023-11-22T08:49:55;9.03;;;6.73;;
9422;SDS011;65863;49.506;10.400;2023-11-22T08:52:59;7.90;;;6.43;;
9422;SDS011;65863;49.506;10.400;2023-11-22T08:55:43;8.13;;;6.67;;
9422;SDS011;65863;49.506;10.400;2023-11-22T08:58:45;7.90;;;6.73;;
9422;SDS011;65863;49.506;10.400;2023-11-22T09:01:29;8.33;;;6.60;;
9422;SDS011;65863;49.506;10.400;2023-11-22T09:04:16;7.73;;;6.60;;
9422;SDS011;65863;49.506;10.400;2023-11-22T09:07:19;8.43;;;6.80;;
9422;SDS011;65863;49.506;10.400;2023-11-22T09:10:06;10.43;;;7.17;;
9422;SDS011;65863;49.506;10.400;2023-11-22T09:13:17;9.70;;;7.50;;
9422;SDS011;65863;49.506;10.400;2023-11-22T09:16:03;9.40;;;7.00;;
9422;SDS011;65863;49.506;10.400;2023-11-22T09:19:07;8.50;;;6.90;;
9422;SDS011;65863;49.506;10.400;2023-11-22T09:21:52;8.30;;;6.73;;
9422;SDS011;65863;49.506;10.400;2023-11-22T09:24:36;10.40;;;8.00;;
9422;SDS011;65863;49.506;10.400;2023-11-22T09:27:39;10.70;;;8.17;;
9422;SDS011;65863;49.506;10.400;2023-11-22T09:30:25;9.37;;;7.43;;
9422;SDS011;65863;49.506;10.400;2023-11-22T09:33:35;9.83;;;7.67;;
9422;SDS011;65863;49.506;10.400;2023-11-22T09:36:19;9.87;;;7.17;;
9422;SDS011;65863;49.506;10.400;2023-11-22T09:39:21;10.43;;;7.53;;
9422;SDS011;65863;49.506;10.400;2023-11-22T09:42:05;8.60;;;7.53;;
9422;SDS011;65863;49.506;10.400;2023-11-22T09:44:55;11.23;;;6.87;;
9422;SDS011;65863;49.506;10.400;2023-11-22T09:47:40;8.30;;;6.87;;
9422;SDS011;65863;49.506;10.400;2023-11-22T09:50:40;8.23;;;6.73;;
9422;SDS011;65863;49.506;10.400;2023-11-22T09:56:40;8.33;;;6.70;;
9422;SDS011;65863;49.506;10.400;2023-11-22T09:59:43;9.27;;;7.13;;
9422;SDS011;65863;49.506;10.400;2023-11-22T10:02:28;10.27;;;7.80;;
9422;SDS011;65863;49.506;10.400;2023-11-22T10:05:13;8.77;;;6.93;;
9422;SDS011;65863;49.506;10.400;2023-11-22T10:08:16;8.13;;;6.30;;
9422;SDS011;65863;49.506;10.400;2023-11-22T10:11:02;8.80;;;7.47;;
9422;SDS011;65863;49.506;10.400;2023-11-22T10:14:07;8.43;;;6.60;;
9422;SDS011;65863;49.506;10.400;2023-11-22T10:17:01;9.33;;;7.33;;
9422;SDS011;65863;49.506;10.400;2023-11-22T10:19:46;7.80;;;6.27;;
9422;SDS011;65863;49.506;10.400;2023-11-22T10:22:30;8.60;;;6.53;;
9422;SDS011;65863;49.506;10.400;2023-11-22T10:25:26;6.40;;;5.70;;
9422;SDS011;65863;49.506;10.400;2023-11-22T10:28:11;7.53;;;5.50;;
9422;SDS011;65863;49.506;10.400;2023-11-22T10:30:56;10.07;;;7.50;;
9422;SDS011;65863;49.506;10.400;2023-11-22T10:33:59;6.23;;;5.27;;
9422;SDS011;65863;49.506;10.400;2023-11-22T10:36:43;7.40;;;5.10;;
9422;SDS011;65863;49.506;10.400;2023-11-22T10:39:27;7.53;;;5.40;;
9422;SDS011;65863;49.506;10.400;2023-11-22T10:42:11;7.40;;;5.30;;
9422;SDS011;65863;49.506;10.400;2023-11-22T10:44:55;5.87;;;5.27;;
9422;SDS011;65863;49.506;10.400;2023-11-22T10:47:43;6.23;;;5.37;;
9422;SDS011;65863;49.506;10.400;2023-11-22T10:50:46;6.40;;;5.40;;
9422;SDS011;65863;49.506;10.400;2023-11-22T10:56:17;6.90;;;5.40;;
9422;SDS011;65863;49.506;10.400;2023-11-22T10:59:22;7.10;;;4.63;;
9422;SDS011;65863;49.506;10.400;2023-11-22T11:02:11;5.60;;;5.10;;
9422;SDS011;65863;49.506;10.400;2023-11-22T11:05:23;9.30;;;5.63;;
9422;SDS011;65863;49.506;10.400;2023-11-22T11:08:32;6.37;;;5.33;;
9422;SDS011;65863;49.506;10.400;2023-11-22T11:11:17;7.00;;;4.90;;
9422;SDS011;65863;49.506;10.400;2023-11-22T11:14:20;5.77;;;5.13;;
9422;SDS011;65863;49.506;10.400;2023-11-22T11:17:05;4.97;;;4.43;;
9422;SDS011;65863;49.506;10.400;2023-11-22T11:20:10;6.40;;;5.80;;
9422;SDS011;65863;49.506;10.400;2023-11-22T11:22:57;5.83;;;4.80;;
9422;SDS011;65863;49.506;10.400;2023-11-22T11:26:08;6.33;;;4.70;;
9422;SDS011;65863;49.506;10.400;2023-11-22T11:29:30;6.50;;;5.70;;
9422;SDS011;65863;49.506;10.400;2023-11-22T11:32:17;5.10;;;4.60;;
9422;SDS011;65863;49.506;10.400;2023-11-22T11:35:37;4.73;;;4.23;;
9422;SDS011;65863;49.506;10.400;2023-11-22T11:38:26;4.60;;;4.20;;
9422;SDS011;65863;49.506;10.400;2023-11-22T11:41:25;5.33;;;4.80;;
9422;SDS011;65863;49.506;10.400;2023-11-22T11:44:35;5.30;;;4.80;;
9422;SDS011;65863;49.506;10.400;2023-11-22T11:47:19;6.93;;;5.83;;
9422;SDS011;65863;49.506;10.400;2023-11-22T11:50:03;7.03;;;4.87;;
9422;SDS011;65863;49.506;10.400;2023-11-22T11:52:48;5.23;;;4.60;;
9422;SDS011;65863;49.506;10.400;2023-11-22T11:55:32;7.63;;;6.90;;
9422;SDS011;65863;49.506;10.400;2023-11-22T11:58:18;4.90;;;4.43;;
9422;SDS011;65863;49.506;10.400;2023-11-22T12:01:21;4.23;;;3.83;;
9422;SDS011;65863;49.506;10.400;2023-11-22T12:04:05;6.37;;;4.97;;
9422;SDS011;65863;49.506;10.400;2023-11-22T12:06:49;5.23;;;4.67;;
9422;SDS011;65863;49.506;10.400;2023-11-22T12:09:36;8.50;;;6.33;;
9422;SDS011;65863;49.506;10.400;2023-11-22T12:12:20;5.73;;;5.13;;
9422;SDS011;65863;49.506;10.400;2023-11-22T12:15:05;5.47;;;4.63;;
9422;SDS011;65863;49.506;10.400;2023-11-22T12:17:50;5.27;;;4.77;;
9422;SDS011;65863;49.506;10.400;2023-11-22T12:20:35;5.43;;;4.73;;
9422;SDS011;65863;49.506;10.400;2023-11-22T12:23:20;7.53;;;4.80;;
9422;SDS011;65863;49.506;10.400;2023-11-22T12:26:09;4.90;;;4.40;;
9422;SDS011;65863;49.506;10.400;2023-11-22T12:28:57;4.53;;;3.90;;
9422;SDS011;65863;49.506;10.400;2023-11-22T12:31:47;4.70;;;4.00;;
9422;SDS011;65863;49.506;10.400;2023-11-22T12:34:34;5.30;;;4.60;;
9422;SDS011;65863;49.506;10.400;2023-11-22T12:37:20;5.40;;;4.73;;
9422;SDS011;65863;49.506;10.400;2023-11-22T12:40:12;5.17;;;4.67;;
9422;SDS011;65863;49.506;10.400;2023-11-22T12:42:56;4.77;;;4.27;;
9422;SDS011;65863;49.506;10.400;2023-11-22T12:45:41;5.07;;;4.23;;
9422;SDS011;65863;49.506;10.400;2023-11-22T12:48:26;5.40;;;4.77;;
9422;SDS011;65863;49.506;10.400;2023-11-22T12:51:32;4.87;;;4.17;;
9422;SDS011;65863;49.506;10.400;2023-11-22T12:54:35;6.30;;;4.20;;
9422;SDS011;65863;49.506;10.400;2023-11-22T12:57:31;4.27;;;3.80;;
9422;SDS011;65863;49.506;10.400;2023-11-22T13:00:16;5.67;;;4.27;;
9422;SDS011;65863;49.506;10.400;2023-11-22T13:03:01;5.07;;;4.00;;
9422;SDS011;65863;49.506;10.400;2023-11-22T13:05:45;4.53;;;4.03;;
9422;SDS011;65863;49.506;10.400;2023-11-22T13:08:48;4.47;;;3.83;;
9422;SDS011;65863;49.506;10.400;2023-11-22T13:11:51;5.60;;;3.97;;
9422;SDS011;65863;49.506;10.400;2023-11-22T13:14:55;4.07;;;3.67;;
9422;SDS011;65863;49.506;10.400;2023-11-22T13:17:46;4.27;;;3.87;;
9422;SDS011;65863;49.506;10.400;2023-11-22T13:20:30;4.07;;;3.67;;
9422;SDS011;65863;49.506;10.400;2023-11-22T13:23:33;4.97;;;4.03;;
9422;SDS011;65863;49.506;10.400;2023-11-22T13:26:37;5.10;;;4.60;;
9422;SDS011;65863;49.506;10.400;2023-11-22T13:29:41;5.27;;;4.60;;
9422;SDS011;65863;49.506;10.400;2023-11-22T13:32:46;5.00;;;4.43;;
9422;SDS011;65863;49.506;10.400;2023-11-22T13:35:31;4.73;;;4.23;;
9422;SDS011;65863;49.506;10.400;2023-11-22T13:38:15;5.97;;;4.53;;
9422;SDS011;65863;49.506;10.400;2023-11-22T13:40:59;5.53;;;4.90;;
9422;SDS011;65863;49.506;10.400;2023-11-22T13:43:44;6.83;;;5.40;;
9422;SDS011;65863;49.506;10.400;2023-11-22T13:46:29;6.57;;;4.90;;
9422;SDS011;65863;49.506;10.400;2023-11-22T13:49:14;5.40;;;4.90;;
9422;SDS011;65863;49.506;10.400;2023-11-22T13:51:58;6.07;;;5.13;;
9422;SDS011;65863;49.506;10.400;2023-11-22T13:54:42;6.67;;;5.37;;
9422;SDS011;65863;49.506;10.400;2023-11-22T13:57:26;6.40;;;5.33;;
9422;SDS011;65863;49.506;10.400;2023-11-22T14:00:10;6.00;;;4.97;;
9422;SDS011;65863;49.506;10.400;2023-11-22T14:03:15;7.47;;;5.33;;
9422;SDS011;65863;49.506;10.400;2023-11-22T14:06:00;5.87;;;5.23;;
9422;SDS011;65863;49.506;10.400;2023-11-22T14:08:44;7.53;;;5.53;;
9422;SDS011;65863;49.506;10.400;2023-11-22T14:11:28;5.87;;;5.17;;
9422;SDS011;65863;49.506;10.400;2023-11-22T14:14:13;8.37;;;5.00;;
9422;SDS011;65863;49.506;10.400;2023-11-22T14:16:58;7.50;;;5.53;;
9422;SDS011;65863;49.506;10.400;2023-11-22T14:19:42;6.93;;;5.07;;
9422;SDS011;65863;49.506;10.400;2023-11-22T14:22:26;7.50;;;5.17;;
9422;SDS011;65863;49.506;10.400;2023-11-22T14:25:11;5.87;;;5.13;;
9422;SDS011;65863;49.506;10.400;2023-11-22T14:27:57;6.87;;;5.20;;
9422;SDS011;65863;49.506;10.400;2023-11-22T14:30:42;6.03;;;5.03;;
9422;SDS011;65863;49.506;10.400;2023-11-22T14:33:26;8.50;;;5.40;;
9422;SDS011;65863;49.506;10.400;2023-11-22T14:36:14;7.00;;;5.20;;
9422;SDS011;65863;49.506;10.400;2023-11-22T14:38:58;7.03;;;5.87;;
9422;SDS011;65863;49.506;10.400;2023-11-22T14:41:42;5.90;;;5.30;;
9422;SDS011;65863;49.506;10.400;2023-11-22T14:44:26;7.43;;;5.90;;
9422;SDS011;65863;49.506;10.400;2023-11-22T14:47:10;6.53;;;5.07;;
9422;SDS011;65863;49.506;10.400;2023-11-22T14:50:03;5.67;;;4.50;;
9422;SDS011;65863;49.506;10.400;2023-11-22T14:52:49;6.57;;;5.00;;
9422;SDS011;65863;49.506;10.400;2023-11-22T14:55:34;7.07;;;5.40;;
9422;SDS011;65863;49.506;10.400;2023-11-22T14:58:21;6.10;;;5.10;;
9422;SDS011;65863;49.506;10.400;2023-11-22T15:01:05;5.95;;;5.40;;
9422;SDS011;65863;49.506;10.400;2023-11-22T15:03:52;5.93;;;5.33;;
9422;SDS011;65863;49.506;10.400;2023-11-22T15:06:39;5.80;;;5.20;;
9422;SDS011;65863;49.506;10.400;2023-11-22T15:09:23;6.13;;;5.23;;
9422;SDS011;65863;49.506;10.400;2023-11-22T15:12:07;5.70;;;4.90;;
9422;SDS011;65863;49.506;10.400;2023-11-22T15:14:53;5.73;;;4.60;;
9422;SDS011;65863;49.506;10.400;2023-11-22T15:17:38;6.17;;;5.20;;
9422;SDS011;65863;49.506;10.400;2023-11-22T15:20:42;5.33;;;4.40;;
9422;SDS011;65863;49.506;10.400;2023-11-22T15:23:45;6.10;;;4.97;;
9422;SDS011;65863;49.506;10.400;2023-11-22T15:26:35;6.33;;;4.80;;
9422;SDS011;65863;49.506;10.400;2023-11-22T15:29:19;5.80;;;5.17;;
9422;SDS011;65863;49.506;10.400;2023-11-22T15:32:03;6.70;;;4.93;;
9422;SDS011;65863;49.506;10.400;2023-11-22T15:34:48;6.27;;;5.47;;
9422;SDS011;65863;49.506;10.400;2023-11-22T15:37:33;9.23;;;5.30;;
9422;SDS011;65863;49.506;10.400;2023-11-22T15:40:17;7.00;;;5.77;;
9422;SDS011;65863;49.506;10.400;2023-11-22T15:43:20;5.43;;;4.93;;
9422;SDS011;65863;49.506;10.400;2023-11-22T15:46:05;6.77;;;5.73;;
9422;SDS011;65863;49.506;10.400;2023-11-22T15:49:08;7.37;;;5.40;;
9422;SDS011;65863;49.506;10.400;2023-11-22T15:51:53;6.87;;;5.50;;
9422;SDS011;65863;49.506;10.400;2023-11-22T15:54:46;9.00;;;5.60;;
9422;SDS011;65863;49.506;10.400;2023-11-22T15:57:31;7.77;;;5.27;;
9422;SDS011;65863;49.506;10.400;2023-11-22T16:00:15;6.03;;;5.13;;
9422;SDS011;65863;49.506;10.400;2023-11-22T16:03:00;9.80;;;5.27;;
9422;SDS011;65863;49.506;10.400;2023-11-22T16:06:03;5.80;;;5.07;;
9422;SDS011;65863;49.506;10.400;2023-11-22T16:09:25;7.10;;;6.40;;
9422;SDS011;65863;49.506;10.400;2023-11-22T16:12:11;6.73;;;4.90;;
9422;SDS011;65863;49.506;10.400;2023-11-22T16:15:02;5.37;;;4.63;;
9422;SDS011;65863;49.506;10.400;2023-11-22T16:17:46;8.03;;;5.90;;
9422;SDS011;65863;49.506;10.400;2023-11-22T16:20:49;8.33;;;6.07;;
9422;SDS011;65863;49.506;10.400;2023-11-22T16:23:52;6.30;;;5.20;;
9422;SDS011;65863;49.506;10.400;2023-11-22T16:26:55;5.47;;;4.77;;
9422;SDS011;65863;49.506;10.400;2023-11-22T16:29:58;6.13;;;5.30;;
9422;SDS011;65863;49.506;10.400;2023-11-22T16:32:42;12.57;;;9.67;;
9422;SDS011;65863;49.506;10.400;2023-11-22T16:35:26;6.87;;;5.80;;
9422;SDS011;65863;49.506;10.400;2023-11-22T16:38:30;7.60;;;5.73;;
9422;SDS011;65863;49.506;10.400;2023-11-22T16:41:14;20.77;;;16.83;;
9422;SDS011;65863;49.506;10.400;2023-11-22T16:44:18;20.60;;;15.47;;
9422;SDS011;65863;49.506;10.400;2023-11-22T16:47:05;8.00;;;6.40;;
9422;SDS011;65863;49.506;10.400;2023-11-22T16:49:50;8.80;;;6.80;;
9422;SDS011;65863;49.506;10.400;2023-11-22T16:52:35;7.90;;;5.90;;
9422;SDS011;65863;49.506;10.400;2023-11-22T16:55:19;6.97;;;5.63;;
9422;SDS011;65863;49.506;10.400;2023-11-22T16:58:03;7.17;;;5.27;;
9422;SDS011;65863;49.506;10.400;2023-11-22T17:00:48;6.23;;;5.63;;
9422;SDS011;65863;49.506;10.400;2023-11-22T17:03:51;6.53;;;5.50;;
9422;SDS011;65863;49.506;10.400;2023-11-22T17:06:35;6.73;;;5.97;;